createdAt,value
2019-03-17T00:02:05.709Z,33.43
2019-03-17T00:04:36.402Z,33.49
2019-03-17T00:07:04.563Z,33.55
2019-03-17T00:09:34.214Z,33.47
2019-03-17T00:12:02.127Z,33.62
2019-03-17T00:14:29.563Z,33.06
2019-03-17T00:16:57.656Z,32.59
2019-03-17T00:19:27.674Z,32.82
2019-03-17T00:21:55.316Z,32.53
2019-03-17T00:24:24.385Z,32.31
2019-03-17T00:26:52.455Z,32.33
2019-03-17T00:29:20.478Z,32.41
2019-03-17T00:31:48.449Z,32.83
2019-03-17T00:34:16.769Z,33.27
2019-03-17T00:36:44.521Z,33.36
2019-03-17T00:39:13.021Z,33.44
2019-03-17T00:41:40.953Z,33.50
2019-03-17T00:44:08.898Z,33.53
2019-03-17T00:46:37.790Z,33.54
2019-03-17T00:49:05.521Z,33.58
2019-03-17T00:51:33.414Z,33.60
2019-03-17T00:54:01.125Z,33.49
2019-03-17T00:56:29.223Z,33.03
2019-03-17T00:58:57.486Z,32.86
2019-03-17T01:01:25.303Z,32.94
2019-03-17T01:03:53.036Z,32.40
2019-03-17T01:06:20.959Z,32.43
2019-03-17T01:08:50.631Z,32.33
2019-03-17T01:11:19.308Z,32.36
2019-03-17T01:13:47.424Z,32.78
2019-03-17T01:16:15.721Z,33.31
2019-03-17T01:18:43.451Z,33.51
2019-03-17T01:21:11.536Z,33.40
2019-03-17T01:23:39.289Z,33.52
2019-03-17T01:26:07.224Z,33.53
2019-03-17T01:28:36.017Z,33.55
2019-03-17T01:31:03.976Z,33.63
2019-03-17T01:33:31.789Z,33.55
2019-03-17T01:35:59.538Z,33.42
2019-03-17T01:38:27.630Z,33.02
2019-03-17T01:40:55.279Z,32.83
2019-03-17T01:43:23.185Z,32.78
2019-03-17T01:45:51.498Z,32.68
2019-03-17T01:48:19.316Z,32.20
2019-03-17T01:50:48.873Z,32.43
2019-03-17T01:53:16.639Z,32.80
2019-03-17T01:55:44.387Z,32.98
2019-03-17T01:58:13.315Z,33.50
2019-03-17T02:00:41.175Z,33.59
2019-03-17T02:03:09.236Z,33.51
2019-03-17T02:05:37.387Z,33.69
2019-03-17T02:08:05.188Z,33.52
2019-03-17T02:10:35.369Z,33.61
2019-03-17T02:13:03.085Z,33.84
2019-03-17T02:15:30.950Z,33.81
2019-03-17T02:17:58.941Z,33.83
2019-03-17T02:20:27.161Z,33.17
2019-03-17T02:22:55.283Z,32.93
2019-03-17T02:25:23.606Z,32.52
2019-03-17T02:28:26.910Z,32.47
2019-03-17T02:31:14.487Z,32.73
2019-03-17T02:33:43.192Z,33.50
2019-03-17T02:36:11.188Z,33.49
2019-03-17T02:38:39.059Z,33.48
2019-03-17T02:41:06.708Z,33.52
2019-03-17T02:43:34.523Z,33.60
2019-03-17T02:46:03.942Z,33.35
2019-03-17T02:48:32.644Z,32.94
2019-03-17T02:51:00.408Z,32.89
2019-03-17T02:53:29.181Z,32.31
2019-03-17T02:55:58.303Z,32.46
2019-03-17T02:58:26.736Z,32.35
2019-03-17T03:00:54.802Z,32.66
2019-03-17T03:03:23.506Z,33.27
2019-03-17T03:05:55.401Z,33.49
2019-03-17T03:08:21.043Z,33.64
2019-03-17T03:10:48.942Z,33.61
2019-03-17T03:13:17.013Z,33.61
2019-03-17T03:15:45.230Z,33.62
2019-03-17T03:18:13.025Z,33.70
2019-03-17T03:20:41.322Z,33.81
2019-03-17T03:23:09.269Z,33.74
2019-03-17T03:25:37.298Z,33.74
2019-03-17T03:28:05.182Z,33.37
2019-03-17T03:30:33.859Z,33.39
2019-03-17T03:33:01.933Z,33.33
2019-03-17T03:35:31.450Z,33.33
2019-03-17T03:37:59.331Z,33.10
2019-03-17T03:40:28.037Z,33.05
2019-03-17T03:42:56.724Z,32.93
2019-03-17T03:45:25.296Z,33.57
2019-03-17T03:47:53.629Z,33.78
2019-03-17T03:50:21.408Z,33.91
2019-03-17T03:52:49.190Z,33.97
2019-03-17T03:55:16.858Z,33.96
2019-03-17T03:57:45.083Z,33.95
2019-03-17T04:00:12.807Z,33.92
2019-03-17T04:02:40.893Z,33.93
2019-03-17T04:05:08.615Z,34.04
2019-03-17T04:07:36.631Z,33.87
2019-03-17T04:10:05.483Z,33.52
2019-03-17T04:12:33.647Z,33.37
2019-03-17T04:15:01.503Z,32.71
2019-03-17T04:17:29.256Z,33.12
2019-03-17T04:19:57.928Z,32.49
2019-03-17T04:22:28.595Z,32.88
2019-03-17T04:24:56.872Z,32.47
2019-03-17T04:27:24.600Z,33.30
2019-03-17T04:29:53.437Z,33.55
2019-03-17T04:32:21.552Z,33.63
2019-03-17T04:34:49.289Z,33.66
2019-03-17T04:37:18.037Z,33.68
2019-03-17T04:39:45.853Z,33.60
2019-03-17T04:42:13.676Z,33.75
2019-03-17T04:44:41.452Z,33.67
2019-03-17T04:47:09.417Z,33.63
2019-03-17T04:49:37.769Z,33.37
2019-03-17T04:52:06.151Z,32.71
2019-03-17T04:54:33.890Z,32.65
2019-03-17T04:57:02.402Z,32.10
2019-03-17T04:59:30.376Z,32.33
2019-03-17T05:01:58.199Z,31.85
2019-03-17T05:04:28.747Z,32.21
2019-03-17T05:06:57.055Z,31.91
2019-03-17T05:09:24.751Z,32.90
2019-03-17T05:11:52.758Z,33.40
2019-03-17T05:14:20.891Z,33.55
2019-03-17T05:16:49.503Z,33.53
2019-03-17T05:19:17.503Z,33.69
2019-03-17T05:21:45.785Z,33.73
2019-03-17T05:24:14.058Z,33.55
2019-03-17T05:26:41.876Z,33.38
2019-03-17T05:29:10.359Z,33.30
2019-03-17T05:31:38.216Z,33.07
2019-03-17T05:34:05.905Z,33.00
2019-03-17T05:36:35.356Z,32.67
2019-03-17T05:39:05.496Z,32.65
2019-03-17T05:41:33.309Z,32.50
2019-03-17T05:44:01.393Z,32.90
2019-03-17T05:46:29.352Z,31.93
2019-03-17T05:48:57.489Z,32.67
2019-03-17T05:51:26.951Z,32.95
2019-03-17T05:53:55.711Z,33.18
2019-03-17T05:56:24.082Z,33.32
2019-03-17T05:58:51.786Z,33.85
2019-03-17T06:01:20.223Z,33.69
2019-03-17T06:03:48.092Z,33.49
2019-03-17T06:06:15.916Z,33.54
2019-03-17T06:08:43.631Z,33.62
2019-03-17T06:11:11.179Z,33.50
2019-03-17T06:13:39.095Z,33.09
2019-03-17T06:16:07.496Z,33.08
2019-03-17T06:18:36.372Z,33.00
2019-03-17T06:21:04.675Z,33.04
2019-03-17T06:23:32.737Z,33.57
2019-03-17T06:26:01.292Z,32.74
2019-03-17T06:28:29.044Z,32.18
2019-03-17T06:30:58.174Z,32.82
2019-03-17T06:33:26.937Z,33.16
2019-03-17T06:35:55.263Z,33.26
2019-03-17T06:38:23.662Z,33.32
2019-03-17T06:40:53.035Z,33.45
2019-03-17T06:43:20.769Z,33.47
2019-03-17T06:45:49.436Z,33.46
2019-03-17T06:48:17.296Z,33.37
2019-03-17T06:50:45.006Z,33.48
2019-03-17T06:53:12.958Z,33.50
2019-03-17T06:55:40.626Z,33.23
2019-03-17T06:58:09.466Z,32.97
2019-03-17T07:00:37.283Z,32.54
2019-03-17T07:03:06.619Z,32.44
2019-03-17T07:05:34.611Z,31.97
2019-03-17T07:08:03.066Z,32.26
2019-03-17T07:10:31.151Z,32.11
2019-03-17T07:12:59.175Z,32.77
2019-03-17T07:15:27.347Z,32.99
2019-03-17T07:17:55.637Z,33.20
2019-03-17T07:20:23.387Z,33.14
2019-03-17T07:22:52.147Z,33.55
2019-03-17T07:25:20.202Z,33.50
2019-03-17T07:27:48.141Z,33.31
2019-03-17T07:30:16.450Z,33.30
2019-03-17T07:32:44.191Z,33.08
2019-03-17T07:35:12.135Z,33.05
2019-03-17T07:37:40.254Z,32.49
2019-03-17T07:40:09.807Z,32.39
2019-03-17T07:42:38.138Z,32.18
2019-03-17T07:45:06.805Z,31.78
2019-03-17T07:47:35.742Z,31.29
2019-03-17T07:50:05.817Z,31.65
2019-03-17T07:52:33.791Z,31.03
2019-03-17T07:55:02.502Z,31.83
2019-03-17T07:57:31.694Z,32.15
2019-03-17T08:00:01.844Z,32.04
2019-03-17T08:02:29.627Z,32.18
2019-03-17T08:04:57.393Z,31.78
2019-03-17T08:07:25.211Z,31.84
2019-03-17T08:09:53.042Z,31.60
2019-03-17T08:12:21.505Z,31.65
2019-03-17T08:14:49.547Z,30.91
2019-03-17T08:17:17.228Z,30.78
2019-03-17T08:19:45.261Z,30.29
2019-03-17T08:22:13.135Z,30.00
2019-03-17T08:24:41.176Z,30.25
2019-03-17T08:27:08.871Z,29.69
2019-03-17T08:29:37.181Z,30.09
2019-03-17T08:32:05.530Z,30.02
2019-03-17T08:34:33.902Z,30.38
2019-03-17T08:37:02.494Z,29.89
2019-03-17T08:39:30.490Z,30.16
2019-03-17T08:41:58.830Z,30.17
2019-03-17T08:44:26.250Z,30.29
2019-03-17T08:46:53.964Z,30.20
2019-03-17T08:49:22.248Z,30.14
2019-03-17T08:51:50.255Z,30.24
2019-03-17T08:54:17.846Z,30.32
2019-03-17T08:56:45.748Z,29.70
2019-03-17T08:59:14.211Z,29.73
2019-03-17T09:01:42.632Z,29.10
2019-03-17T09:04:10.838Z,29.26
2019-03-17T09:06:39.414Z,29.04
2019-03-17T09:09:08.465Z,29.04
2019-03-17T09:11:36.431Z,29.20
2019-03-17T09:14:09.851Z,29.10
2019-03-17T09:16:39.245Z,29.43
2019-03-17T09:19:07.985Z,30.00
2019-03-17T09:21:36.200Z,30.10
2019-03-17T09:24:16.291Z,30.03
2019-03-17T09:26:34.243Z,30.03
2019-03-17T09:29:01.962Z,30.31
2019-03-17T09:31:30.835Z,30.18
2019-03-17T09:33:59.341Z,30.18
2019-03-17T09:36:27.708Z,30.05
2019-03-17T09:38:56.134Z,29.00
2019-03-17T09:41:24.454Z,29.44
2019-03-17T09:43:52.759Z,29.96
2019-03-17T09:46:20.608Z,29.42
2019-03-17T09:48:48.310Z,29.04
2019-03-17T09:51:16.651Z,29.21
2019-03-17T09:53:44.537Z,28.12
2019-03-17T09:56:13.006Z,29.20
2019-03-17T09:58:41.640Z,29.94
2019-03-17T10:01:09.747Z,29.76
2019-03-17T10:03:38.550Z,29.62
2019-03-17T10:06:06.856Z,29.71
2019-03-17T10:08:35.012Z,29.89
2019-03-17T10:11:02.732Z,29.92
2019-03-17T10:13:30.919Z,29.75
2019-03-17T10:15:58.413Z,29.72
2019-03-17T10:18:26.183Z,30.33
2019-03-17T10:20:54.236Z,31.72
2019-03-17T10:23:22.649Z,30.99
2019-03-17T10:25:50.794Z,31.32
2019-03-17T10:28:18.903Z,31.02
2019-03-17T10:30:46.915Z,30.09
2019-03-17T10:33:14.796Z,30.37
2019-03-17T10:35:42.779Z,30.37
2019-03-17T10:38:11.162Z,29.72
2019-03-17T10:40:40.473Z,29.64
2019-03-17T10:43:08.869Z,29.32
2019-03-17T10:45:36.707Z,29.35
2019-03-17T10:48:04.911Z,28.87
2019-03-17T10:50:32.899Z,28.81
2019-03-17T10:53:01.338Z,28.90
2019-03-17T10:55:29.345Z,28.68
2019-03-17T10:57:57.028Z,28.29
2019-03-17T11:00:24.489Z,28.72
2019-03-17T11:02:52.578Z,28.20
2019-03-17T11:05:20.757Z,28.12
2019-03-17T11:07:48.731Z,27.42
2019-03-17T11:10:16.323Z,28.07
2019-03-17T11:12:44.144Z,27.76
2019-03-17T11:15:12.841Z,27.56
2019-03-17T11:17:40.805Z,27.58
2019-03-17T11:20:10.601Z,27.29
2019-03-17T11:22:38.028Z,27.29
2019-03-17T11:25:07.673Z,27.38
2019-03-17T11:27:35.786Z,27.26
2019-03-17T11:30:05.158Z,27.32
2019-03-17T11:32:32.838Z,27.62
2019-03-17T11:35:02.112Z,27.60
2019-03-17T11:37:30.367Z,27.88
2019-03-17T11:39:58.443Z,27.94
2019-03-17T11:42:25.978Z,27.89
2019-03-17T11:44:53.775Z,27.86
2019-03-17T11:47:23.075Z,27.92
2019-03-17T11:49:51.542Z,27.90
2019-03-17T11:52:19.532Z,27.92
2019-03-17T11:54:47.772Z,27.96
2019-03-17T11:57:15.650Z,27.75
2019-03-17T11:59:44.407Z,27.77
2019-03-17T12:02:12.173Z,27.61
2019-03-17T12:04:40.061Z,27.32
2019-03-17T12:07:10.701Z,27.48
2019-03-17T12:09:49.549Z,27.70
2019-03-17T12:12:08.901Z,27.62
2019-03-17T12:14:36.889Z,27.56
2019-03-17T12:17:04.724Z,28.09
2019-03-17T12:19:33.002Z,28.09
2019-03-17T12:22:09.307Z,28.03
2019-03-17T12:24:36.670Z,28.07
2019-03-17T12:27:04.043Z,28.15
2019-03-17T12:29:32.500Z,28.15
2019-03-17T12:32:01.708Z,28.05
2019-03-17T12:34:30.500Z,28.01
2019-03-17T12:36:59.216Z,28.01
2019-03-17T12:39:27.511Z,28.10
2019-03-17T12:41:58.254Z,28.13
2019-03-17T12:44:25.823Z,28.15
2019-03-17T12:46:53.533Z,28.33
2019-03-17T12:49:22.867Z,28.41
2019-03-17T12:51:50.299Z,28.60
2019-03-17T12:54:18.356Z,28.63
2019-03-17T12:56:46.141Z,28.54
2019-03-17T12:59:13.917Z,28.54
2019-03-17T13:01:41.880Z,28.63
2019-03-17T13:04:09.761Z,28.77
2019-03-17T13:06:38.408Z,28.95
2019-03-17T13:09:07.276Z,28.86
2019-03-17T13:11:36.143Z,29.42
2019-03-17T13:14:06.776Z,29.63
2019-03-17T13:16:34.098Z,29.12
2019-03-17T13:19:02.003Z,29.07
2019-03-17T13:21:31.850Z,28.97
2019-03-17T13:23:59.695Z,29.47
2019-03-17T13:26:27.881Z,29.78
2019-03-17T13:28:57.488Z,29.96
2019-03-17T13:31:25.756Z,30.09
2019-03-17T13:33:53.464Z,30.00
2019-03-17T13:36:21.552Z,30.09
2019-03-17T13:38:49.667Z,30.27
2019-03-17T13:41:18.205Z,30.43
2019-03-17T13:43:46.928Z,30.39
2019-03-17T13:46:15.433Z,30.61
2019-03-17T13:48:43.220Z,30.73
2019-03-17T13:51:11.189Z,31.00
2019-03-17T13:53:41.489Z,31.11
2019-03-17T13:56:09.193Z,31.02
2019-03-17T13:58:37.233Z,31.02
2019-03-17T14:01:05.689Z,31.60
2019-03-17T14:03:33.497Z,31.63
2019-03-17T14:06:01.652Z,31.58
2019-03-17T14:08:29.941Z,31.61
2019-03-17T14:10:57.674Z,31.58
2019-03-17T14:13:25.822Z,31.60
2019-03-17T14:15:53.638Z,31.66
2019-03-17T14:18:22.164Z,31.74
2019-03-17T14:20:50.232Z,31.87
2019-03-17T14:24:58.317Z,31.95
2019-03-17T14:27:25.782Z,32.01
2019-03-17T14:29:53.556Z,31.98
2019-03-17T14:32:20.627Z,31.98
2019-03-17T14:34:48.036Z,32.12
2019-03-17T14:37:15.446Z,32.27
2019-03-17T14:39:42.715Z,31.84
2019-03-17T14:42:10.105Z,31.86
2019-03-17T14:44:37.435Z,32.05
2019-03-17T14:47:04.747Z,32.25
2019-03-17T14:49:32.774Z,32.42
2019-03-17T14:52:00.462Z,32.47
2019-03-17T14:54:27.799Z,32.55
2019-03-17T14:56:55.170Z,32.58
2019-03-17T14:59:22.558Z,32.52
2019-03-17T15:01:49.973Z,32.64
2019-03-17T15:04:17.633Z,32.44
2019-03-17T15:06:45.494Z,32.68
2019-03-17T15:11:54.900Z,32.95
2019-03-17T15:14:23.351Z,32.85
2019-03-17T15:16:50.514Z,33.02
2019-03-17T15:19:17.934Z,32.94
2019-03-17T15:21:46.091Z,32.79
2019-03-17T15:24:13.195Z,32.95
2019-03-17T15:26:40.312Z,32.92
2019-03-17T15:29:07.623Z,32.89
2019-03-17T15:31:35.010Z,33.07
2019-03-17T15:34:02.665Z,32.60
2019-03-17T15:36:29.722Z,33.01
2019-03-17T15:38:58.097Z,33.21
2019-03-17T15:41:25.134Z,33.15
2019-03-17T15:43:53.209Z,33.22
2019-03-17T15:46:20.932Z,33.07
2019-03-17T15:48:48.432Z,33.28
2019-03-17T15:51:20.666Z,33.18
2019-03-17T15:53:46.451Z,33.23
2019-03-17T15:56:14.350Z,33.33
2019-03-17T15:58:43.128Z,33.50
2019-03-17T16:01:10.868Z,33.56
2019-03-17T16:03:38.809Z,33.48
2019-03-17T16:06:06.886Z,33.39
2019-03-17T16:08:34.691Z,32.91
2019-03-17T16:11:02.728Z,33.24
2019-03-17T16:13:30.722Z,33.37
2019-03-17T16:15:58.561Z,33.25
2019-03-17T16:18:26.717Z,33.26
2019-03-17T16:20:54.851Z,33.37
2019-03-17T16:23:23.513Z,33.59
2019-03-17T16:25:51.779Z,33.49
2019-03-17T16:28:19.960Z,33.72
2019-03-17T16:30:48.074Z,33.85
2019-03-17T16:33:15.915Z,33.87
2019-03-17T16:35:46.367Z,33.88
2019-03-17T16:38:15.069Z,33.84
2019-03-17T16:40:42.785Z,33.93
2019-03-17T16:43:10.838Z,33.95
2019-03-17T16:45:39.382Z,34.10
2019-03-17T16:48:07.457Z,34.02
2019-03-17T16:50:35.314Z,33.85
2019-03-17T16:53:03.745Z,33.40
2019-03-17T16:55:32.291Z,33.82
2019-03-17T16:58:00.118Z,34.53
2019-03-17T17:00:28.284Z,34.10
2019-03-17T17:02:55.964Z,33.72
2019-03-17T17:05:24.094Z,34.65
2019-03-17T17:07:52.616Z,34.75
2019-03-17T17:10:20.314Z,34.97
2019-03-17T17:12:48.260Z,34.36
2019-03-17T17:15:19.618Z,33.66
2019-03-17T17:17:48.084Z,34.48
2019-03-17T17:20:21.845Z,34.24
2019-03-17T17:22:49.883Z,34.08
2019-03-17T17:25:18.271Z,34.29
2019-03-17T17:27:46.618Z,34.26
2019-03-17T17:30:16.839Z,34.06
2019-03-17T17:32:45.090Z,33.99
2019-03-17T17:35:14.287Z,34.27
2019-03-17T17:37:43.598Z,34.45
2019-03-17T17:40:13.631Z,34.72
2019-03-17T17:42:41.981Z,35.03
2019-03-17T17:45:12.513Z,34.91
2019-03-17T17:47:40.999Z,35.28
2019-03-17T17:50:11.276Z,35.58
2019-03-17T17:52:39.237Z,36.38
2019-03-17T17:55:07.358Z,36.70
2019-03-17T17:57:35.280Z,36.84
2019-03-17T18:00:03.935Z,37.16
2019-03-17T18:02:31.954Z,37.00
2019-03-17T18:05:00.287Z,36.87
2019-03-17T18:07:28.251Z,36.84
2019-03-17T18:09:56.398Z,36.96
2019-03-17T18:12:24.563Z,36.45
2019-03-17T18:14:54.667Z,36.61
2019-03-17T18:17:22.262Z,36.36
2019-03-17T18:19:49.977Z,35.89
2019-03-17T18:22:18.031Z,36.41
2019-03-17T18:24:46.262Z,35.68
2019-03-17T18:27:14.365Z,35.89
2019-03-17T18:29:42.366Z,36.53
2019-03-17T18:32:13.203Z,36.63
2019-03-17T18:34:42.289Z,36.59
2019-03-17T18:37:10.402Z,36.76
2019-03-17T18:39:38.687Z,37.29
2019-03-17T18:42:09.909Z,37.32
2019-03-17T18:44:38.554Z,37.03
2019-03-17T18:47:06.990Z,36.89
2019-03-17T18:49:36.557Z,37.06
2019-03-17T18:52:04.816Z,37.34
2019-03-17T18:54:32.955Z,37.57
2019-03-17T18:57:00.280Z,37.00
2019-03-17T18:59:29.336Z,37.31
2019-03-17T19:01:58.025Z,37.31
2019-03-17T19:04:26.705Z,37.17
2019-03-17T19:06:56.898Z,37.49
2019-03-17T19:09:25.022Z,37.32
2019-03-17T19:11:52.820Z,36.89
2019-03-17T19:14:20.569Z,37.01
2019-03-17T19:16:48.737Z,37.04
2019-03-17T19:19:16.752Z,36.84
2019-03-17T19:21:45.117Z,36.85
2019-03-17T19:24:12.724Z,36.79
2019-03-17T19:26:40.250Z,36.43
2019-03-17T19:29:08.483Z,36.42
2019-03-17T19:31:36.865Z,36.36
2019-03-17T19:34:04.597Z,35.69
2019-03-17T19:36:32.734Z,35.07
2019-03-17T19:39:00.915Z,35.92
2019-03-17T19:41:29.046Z,36.41
2019-03-17T19:43:57.107Z,36.45
2019-03-17T19:46:25.415Z,36.69
2019-03-17T19:48:53.505Z,37.05
2019-03-17T19:51:22.091Z,36.76
2019-03-17T19:53:50.047Z,37.06
2019-03-17T19:56:19.168Z,36.71
2019-03-17T19:58:47.176Z,36.67
2019-03-17T20:01:15.680Z,36.80
2019-03-17T20:03:43.517Z,36.50
2019-03-17T20:06:11.736Z,36.66
2019-03-17T20:08:40.521Z,36.92
2019-03-17T20:11:09.184Z,36.70
2019-03-17T20:13:37.401Z,36.77
2019-03-17T20:16:05.779Z,36.46
2019-03-17T20:18:33.904Z,36.41
2019-03-17T20:21:01.922Z,36.75
2019-03-17T20:23:30.286Z,36.55
2019-03-17T20:25:58.634Z,36.74
2019-03-17T20:28:27.363Z,36.57
2019-03-17T20:30:55.422Z,36.76
2019-03-17T20:33:23.406Z,37.03
2019-03-17T20:35:51.127Z,36.69
2019-03-17T20:38:21.059Z,36.51
2019-03-17T20:40:50.137Z,36.79
2019-03-17T20:43:29.273Z,36.85
2019-03-17T20:45:48.216Z,36.45
2019-03-17T20:48:16.893Z,36.58
2019-03-17T20:50:46.837Z,35.77
2019-03-17T20:53:14.697Z,35.42
2019-03-17T20:55:42.636Z,35.12
2019-03-17T20:58:10.946Z,35.23
2019-03-17T21:00:38.898Z,35.65
2019-03-17T21:03:06.669Z,35.26
2019-03-17T21:05:35.919Z,35.32
2019-03-17T21:08:03.987Z,35.57
2019-03-17T21:10:32.174Z,35.70
2019-03-17T21:13:00.206Z,35.60
2019-03-17T21:15:28.198Z,35.85
2019-03-17T21:17:56.299Z,35.90
2019-03-17T21:20:24.958Z,35.73
2019-03-17T21:22:53.010Z,35.49
2019-03-17T21:25:21.344Z,35.62
2019-03-17T21:27:49.607Z,35.69
2019-03-17T21:30:20.009Z,35.82
2019-03-17T21:32:48.371Z,35.34
2019-03-17T21:35:18.892Z,36.02
2019-03-17T21:37:46.689Z,35.67
2019-03-17T21:40:15.262Z,35.86
2019-03-17T21:42:43.228Z,35.59
2019-03-17T21:45:11.793Z,34.94
2019-03-17T21:47:39.564Z,35.93
2019-03-17T21:50:10.787Z,35.88
2019-03-17T21:52:40.482Z,35.70
2019-03-17T21:55:08.974Z,35.69
2019-03-17T21:57:36.727Z,35.70
2019-03-17T22:00:06.819Z,35.84
2019-03-17T22:02:35.242Z,35.96
2019-03-17T22:05:04.074Z,35.78
2019-03-17T22:07:32.918Z,35.65
2019-03-17T22:10:01.786Z,35.69
2019-03-17T22:12:29.513Z,35.29
2019-03-17T22:14:58.030Z,35.50
2019-03-17T22:17:25.667Z,34.99
2019-03-17T22:19:55.323Z,34.82
2019-03-17T22:22:23.321Z,34.31
2019-03-17T22:24:55.206Z,35.39
2019-03-17T22:27:23.960Z,34.94
2019-03-17T22:29:54.098Z,35.57
2019-03-17T22:32:22.833Z,35.77
2019-03-17T22:34:51.701Z,35.91
2019-03-17T22:37:19.632Z,35.84
2019-03-17T22:39:47.464Z,35.80
2019-03-17T22:42:15.164Z,35.78
2019-03-17T22:44:46.888Z,35.70
2019-03-17T22:47:16.153Z,35.69
2019-03-17T22:49:44.649Z,35.70
2019-03-17T22:52:13.209Z,35.59
2019-03-17T22:54:50.777Z,35.13
2019-03-17T22:57:18.974Z,35.30
2019-03-17T22:59:47.331Z,34.91
2019-03-17T23:02:15.300Z,34.50
2019-03-17T23:04:43.090Z,35.41
2019-03-17T23:07:10.729Z,35.44
2019-03-17T23:09:48.232Z,35.58
2019-03-17T23:12:16.498Z,35.67
2019-03-17T23:14:44.331Z,35.71
2019-03-17T23:17:12.059Z,35.51
2019-03-17T23:19:40.106Z,35.73
2019-03-17T23:22:08.273Z,35.77
2019-03-17T23:24:36.542Z,35.74
2019-03-17T23:27:04.262Z,35.60
2019-03-17T23:29:32.148Z,35.40
2019-03-17T23:31:59.950Z,34.94
2019-03-17T23:34:28.328Z,34.76
2019-03-17T23:36:56.475Z,34.75
2019-03-17T23:39:25.686Z,34.71
2019-03-17T23:41:53.225Z,34.17
2019-03-17T23:44:21.006Z,35.12
2019-03-17T23:46:48.831Z,35.50
2019-03-17T23:49:17.486Z,35.52
2019-03-17T23:51:47.049Z,35.61
2019-03-17T23:54:15.042Z,35.60
2019-03-17T23:56:44.008Z,35.52
2019-03-17T23:59:11.643Z,35.54
